createdAt,value
2023-01-09T00:00:49.220Z,-13.62
2023-01-09T00:03:16.396Z,-13.51
2023-01-09T00:05:43.643Z,-12.89
2023-01-09T00:08:10.778Z,-13.06
2023-01-09T00:10:37.985Z,-13.61
2023-01-09T00:13:05.069Z,-13.50
2023-01-09T00:15:32.243Z,-12.73
2023-01-09T00:17:59.431Z,-12.22
2023-01-09T00:20:26.578Z,-12.70
2023-01-09T00:22:53.638Z,-13.20
2023-01-09T00:25:22.824Z,-13.75
2023-01-09T00:27:49.968Z,-14.01
2023-01-09T00:30:17.133Z,-14.42
2023-01-09T00:32:44.344Z,-14.16
2023-01-09T00:35:15.813Z,-14.98
2023-01-09T00:37:42.926Z,-15.17
2023-01-09T00:40:11.262Z,-15.56
2023-01-09T00:42:39.323Z,-15.09
2023-01-09T00:45:11.499Z,-15.23
2023-01-09T00:47:46.934Z,-15.67
2023-01-09T00:50:23.534Z,-16.00
2023-01-09T00:52:53.321Z,-16.08
2023-01-09T00:55:20.881Z,-16.02
2023-01-09T00:57:48.400Z,-16.17
2023-01-09T01:00:16.275Z,-16.34
2023-01-09T01:02:43.464Z,-16.39
2023-01-09T01:05:28.975Z,-16.21
2023-01-09T01:07:56.070Z,-15.26
2023-01-09T01:10:25.631Z,-15.92
2023-01-09T01:12:53.766Z,-15.52
2023-01-09T01:15:21.762Z,-15.89
2023-01-09T01:17:49.000Z,-16.44
2023-01-09T01:20:18.459Z,-16.34
2023-01-09T01:22:45.939Z,-16.21
2023-01-09T01:25:15.199Z,-16.12
2023-01-09T01:27:42.372Z,-15.85
2023-01-09T01:30:13.453Z,-15.61
2023-01-09T01:32:41.086Z,-15.54
2023-01-09T01:35:09.099Z,-15.80
2023-01-09T01:37:38.293Z,-15.19
2023-01-09T01:40:07.401Z,-15.38
2023-01-09T01:42:34.481Z,-15.22
2023-01-09T01:45:15.116Z,-16.34
2023-01-09T01:47:50.925Z,-17.07
2023-01-09T01:50:59.538Z,-17.37
2023-01-09T01:53:35.605Z,-17.09
2023-01-09T01:56:16.697Z,-16.94
2023-01-09T01:59:06.778Z,-17.02
2023-01-09T02:01:34.836Z,-16.45
2023-01-09T02:04:02.761Z,-16.42
2023-01-09T02:06:32.835Z,-16.12
2023-01-09T02:09:01.402Z,-16.18
2023-01-09T02:11:29.363Z,-16.15
2023-01-09T02:13:56.875Z,-15.38
2023-01-09T02:16:38.925Z,-15.90
2023-01-09T02:19:21.211Z,-15.65
2023-01-09T02:22:11.450Z,-16.21
2023-01-09T02:25:17.196Z,-15.05
2023-01-09T02:28:21.404Z,-14.38
2023-01-09T02:31:06.347Z,-14.28
2023-01-09T02:33:51.038Z,-14.31
2023-01-09T02:36:25.121Z,-14.76
2023-01-09T02:39:19.842Z,-14.73
2023-01-09T02:42:00.532Z,-14.25
2023-01-09T02:44:30.669Z,-14.32
2023-01-09T02:47:03.858Z,-14.75
2023-01-09T02:49:33.258Z,-14.26
2023-01-09T02:52:37.381Z,-14.67
2023-01-09T02:55:07.269Z,-15.22
2023-01-09T02:57:49.646Z,-14.80
2023-01-09T03:00:32.538Z,-14.69
2023-01-09T03:03:23.025Z,-14.42
2023-01-09T03:06:35.393Z,-13.93
2023-01-09T03:09:12.204Z,-14.58
2023-01-09T03:11:44.083Z,-14.92
2023-01-09T03:14:16.310Z,-15.52
2023-01-09T03:16:48.396Z,-15.83
2023-01-09T03:19:19.439Z,-15.41
2023-01-09T03:21:47.427Z,-15.96
2023-01-09T03:24:14.870Z,-15.67
2023-01-09T03:26:42.749Z,-15.07
2023-01-09T03:29:10.149Z,-15.02
2023-01-09T03:31:37.314Z,-14.80
2023-01-09T03:34:04.701Z,-14.91
2023-01-09T03:36:31.767Z,-14.97
2023-01-09T03:38:58.911Z,-15.02
2023-01-09T03:41:25.980Z,-15.13
2023-01-09T03:43:53.006Z,-14.85
2023-01-09T03:46:20.049Z,-14.68
2023-01-09T03:48:48.080Z,-14.44
2023-01-09T03:51:15.164Z,-14.21
2023-01-09T03:53:42.255Z,-14.38
2023-01-09T03:56:09.416Z,-14.22
2023-01-09T03:58:36.537Z,-14.08
2023-01-09T04:01:05.804Z,-14.16
2023-01-09T04:03:33.119Z,-14.15
2023-01-09T04:06:00.197Z,-13.86
2023-01-09T04:08:27.326Z,-13.83
2023-01-09T04:10:54.397Z,-13.77
2023-01-09T04:13:21.542Z,-13.78
2023-01-09T04:15:49.067Z,-13.74
2023-01-09T04:18:16.611Z,-13.89
2023-01-09T04:20:48.591Z,-14.09
2023-01-09T04:23:16.504Z,-14.52
2023-01-09T04:25:43.688Z,-14.28
2023-01-09T04:28:10.761Z,-14.35
2023-01-09T04:30:37.896Z,-14.11
2023-01-09T04:33:05.004Z,-14.48
2023-01-09T04:35:32.125Z,-14.71
2023-01-09T04:38:00.873Z,-14.47
2023-01-09T04:40:28.307Z,-14.45
2023-01-09T04:42:55.434Z,-14.14
2023-01-09T04:45:22.623Z,-14.22
2023-01-09T04:47:49.744Z,-13.98
2023-01-09T04:50:17.110Z,-13.73
2023-01-09T04:52:44.375Z,-13.69
2023-01-09T04:55:11.530Z,-13.94
2023-01-09T04:57:39.843Z,-15.60
2023-01-09T05:00:09.904Z,-15.54
2023-01-09T05:02:37.759Z,-14.94
2023-01-09T05:05:06.464Z,-14.49
2023-01-09T05:07:34.177Z,-14.71
2023-01-09T05:10:02.501Z,-14.78
2023-01-09T05:12:33.203Z,-14.63
2023-01-09T05:15:00.394Z,-14.47
2023-01-09T05:17:27.481Z,-14.19
2023-01-09T05:19:54.646Z,-14.61
2023-01-09T05:22:21.749Z,-14.77
2023-01-09T05:24:48.846Z,-14.79
2023-01-09T05:27:15.946Z,-15.65
2023-01-09T05:29:42.995Z,-15.61
2023-01-09T05:32:10.155Z,-15.21
2023-01-09T05:34:37.284Z,-14.67
2023-01-09T05:37:04.460Z,-14.88
2023-01-09T05:39:31.662Z,-15.22
2023-01-09T05:41:58.725Z,-15.04
2023-01-09T05:44:25.791Z,-14.81
2023-01-09T05:46:52.866Z,-14.51
2023-01-09T05:49:19.980Z,-15.23
2023-01-09T05:51:47.029Z,-15.03
2023-01-09T05:54:14.177Z,-14.62
2023-01-09T05:56:42.768Z,-14.82
2023-01-09T05:59:10.078Z,-14.38
2023-01-09T06:01:37.273Z,-14.13
2023-01-09T06:04:04.477Z,-13.91
2023-01-09T06:06:31.564Z,-13.77
2023-01-09T06:08:58.679Z,-13.65
2023-01-09T06:11:25.731Z,-13.83
2023-01-09T06:13:52.853Z,-15.02
2023-01-09T06:16:19.995Z,-14.63
2023-01-09T06:18:47.147Z,-14.15
2023-01-09T06:21:14.271Z,-14.05
2023-01-09T06:23:41.338Z,-13.82
2023-01-09T06:26:08.644Z,-13.60
2023-01-09T06:28:35.749Z,-13.50
2023-01-09T06:31:02.973Z,-13.64
2023-01-09T06:33:30.169Z,-14.45
2023-01-09T06:35:57.248Z,-14.08
2023-01-09T06:38:24.361Z,-13.94
2023-01-09T06:40:51.805Z,-15.17
2023-01-09T06:43:18.942Z,-15.68
2023-01-09T06:45:46.090Z,-15.37
2023-01-09T06:48:13.265Z,-14.85
2023-01-09T06:50:40.639Z,-15.61
2023-01-09T06:53:08.178Z,-15.91
2023-01-09T06:55:35.441Z,-15.72
2023-01-09T06:58:02.684Z,-15.61
2023-01-09T07:00:31.549Z,-15.60
2023-01-09T07:02:58.819Z,-15.31
2023-01-09T07:05:26.018Z,-15.10
2023-01-09T07:07:53.223Z,-14.91
2023-01-09T07:10:20.400Z,-15.39
2023-01-09T07:12:47.550Z,-16.24
2023-01-09T07:15:14.836Z,-15.83
2023-01-09T07:17:41.927Z,-16.04
2023-01-09T07:20:09.793Z,-15.46
2023-01-09T07:22:37.246Z,-15.19
2023-01-09T07:25:04.791Z,-15.52
2023-01-09T07:27:31.937Z,-15.42
2023-01-09T07:29:59.031Z,-15.18
2023-01-09T07:32:26.212Z,-15.39
2023-01-09T07:34:55.046Z,-15.26
2023-01-09T07:37:22.088Z,-15.82
2023-01-09T07:39:49.151Z,-16.64
2023-01-09T07:42:16.431Z,-16.46
2023-01-09T07:44:43.676Z,-16.64
2023-01-09T07:47:10.964Z,-15.73
2023-01-09T07:49:38.035Z,-15.74
2023-01-09T07:52:05.212Z,-15.89
2023-01-09T07:54:32.411Z,-15.94
2023-01-09T07:56:59.603Z,-15.07
2023-01-09T07:59:28.939Z,-15.59
2023-01-09T08:01:56.824Z,-15.29
2023-01-09T08:04:24.068Z,-15.25
2023-01-09T08:06:51.180Z,-15.50
2023-01-09T08:09:18.946Z,-15.88
2023-01-09T08:11:46.021Z,-15.86
2023-01-09T08:14:13.258Z,-15.50
2023-01-09T08:16:40.404Z,-15.00
2023-01-09T08:19:07.607Z,-15.24
2023-01-09T08:21:34.751Z,-16.01
2023-01-09T08:24:01.902Z,-15.62
2023-01-09T08:26:29.110Z,-15.97
2023-01-09T08:28:56.278Z,-15.61
2023-01-09T08:31:23.480Z,-14.57
2023-01-09T08:33:50.896Z,-14.58
2023-01-09T08:36:18.025Z,-14.79
2023-01-09T08:38:45.131Z,-16.28
2023-01-09T08:41:30.652Z,-16.79
2023-01-09T08:44:16.168Z,-16.41
2023-01-09T08:47:01.788Z,-16.20
2023-01-09T08:49:28.886Z,-16.31
2023-01-09T08:51:55.968Z,-16.48
2023-01-09T08:54:23.053Z,-16.84
2023-01-09T08:56:50.229Z,-17.13
2023-01-09T08:59:17.467Z,-16.94
2023-01-09T09:01:44.785Z,-16.21
2023-01-09T09:04:11.990Z,-16.04
2023-01-09T09:06:39.051Z,-16.26
2023-01-09T09:09:06.945Z,-15.77
2023-01-09T09:11:34.478Z,-15.95
2023-01-09T09:14:22.612Z,-16.17
2023-01-09T09:16:51.994Z,-15.41
2023-01-09T09:19:19.175Z,-14.79
2023-01-09T09:21:46.327Z,-15.37
2023-01-09T09:24:13.532Z,-14.62
2023-01-09T09:26:41.511Z,-14.77
2023-01-09T09:29:09.402Z,-15.19
2023-01-09T09:31:38.823Z,-15.53
2023-01-09T09:34:07.184Z,-14.70
2023-01-09T09:36:34.718Z,-14.43
2023-01-09T09:39:02.920Z,-14.32
2023-01-09T09:42:24.837Z,-14.17
2023-01-09T09:45:19.629Z,-14.25
2023-01-09T09:47:52.358Z,-14.36
2023-01-09T09:51:03.102Z,-16.51
2023-01-09T09:53:54.050Z,-15.99
2023-01-09T09:56:23.509Z,-15.10
2023-01-09T09:59:03.774Z,-15.13
2023-01-09T10:02:05.054Z,-14.44
2023-01-09T10:04:36.956Z,-15.17
2023-01-09T10:07:15.824Z,-14.76
2023-01-09T10:09:50.565Z,-14.97
2023-01-09T10:12:27.659Z,-14.42
2023-01-09T10:14:57.709Z,-14.16
2023-01-09T10:17:46.452Z,-13.75
2023-01-09T10:20:25.605Z,-13.35
2023-01-09T10:23:15.396Z,-13.36
2023-01-09T10:26:01.080Z,-13.31
2023-01-09T10:28:49.965Z,-13.22
2023-01-09T10:31:30.490Z,-13.13
2023-01-09T10:34:14.584Z,-13.19
2023-01-09T10:37:05.610Z,-13.09
2023-01-09T10:39:41.377Z,-13.33
2023-01-09T10:42:11.406Z,-13.38
2023-01-09T10:44:47.428Z,-13.39
2023-01-09T10:47:32.829Z,-13.67
2023-01-09T10:50:01.851Z,-14.02
2023-01-09T10:52:41.387Z,-13.73
2023-01-09T10:55:23.272Z,-13.93
2023-01-09T10:57:57.444Z,-13.75
2023-01-09T11:00:25.146Z,-14.44
2023-01-09T11:02:54.920Z,-14.26
2023-01-09T11:05:31.131Z,-14.81
2023-01-09T11:08:13.982Z,-14.43
2023-01-09T11:10:50.277Z,-13.95
2023-01-09T11:13:33.182Z,-13.76
2023-01-09T11:16:07.896Z,-13.39
2023-01-09T11:18:39.794Z,-13.58
2023-01-09T11:21:33.139Z,-14.36
2023-01-09T11:24:24.019Z,-14.07
2023-01-09T11:26:53.485Z,-13.74
2023-01-09T11:29:26.124Z,-13.57
2023-01-09T11:31:58.556Z,-13.82
2023-01-09T11:34:28.665Z,-13.90
2023-01-09T11:37:04.627Z,-14.46
2023-01-09T11:39:35.181Z,-14.36
2023-01-09T11:42:08.653Z,-13.93
2023-01-09T11:44:36.262Z,-15.25
2023-01-09T11:47:23.798Z,-15.12
2023-01-09T11:49:51.417Z,-14.76
2023-01-09T11:52:21.020Z,-15.03
2023-01-09T11:55:04.444Z,-14.73
2023-01-09T11:57:32.320Z,-14.97
2023-01-09T12:00:03.675Z,-15.35
2023-01-09T12:02:51.463Z,-15.09
2023-01-09T12:05:55.533Z,-14.97
2023-01-09T12:08:25.530Z,-15.59
2023-01-09T12:10:55.561Z,-15.44
2023-01-09T12:14:04.450Z,-14.88
2023-01-09T12:16:51.137Z,-14.37
2023-01-09T12:19:18.195Z,-14.27
2023-01-09T12:22:24.183Z,-14.56
2023-01-09T12:25:20.086Z,-14.42
2023-01-09T12:27:59.159Z,-15.14
2023-01-09T12:31:00.423Z,-15.34
2023-01-09T12:33:44.317Z,-15.39
2023-01-09T12:36:17.396Z,-15.19
2023-01-09T12:38:54.791Z,-15.30
2023-01-09T12:41:37.982Z,-14.92
2023-01-09T12:45:01.405Z,-14.71
2023-01-09T12:47:49.043Z,-14.68
2023-01-09T12:50:31.748Z,-15.45
2023-01-09T12:53:06.174Z,-14.99
2023-01-09T12:55:48.572Z,-14.91
2023-01-09T12:58:34.260Z,-15.18
2023-01-09T13:01:07.525Z,-15.22
2023-01-09T13:03:43.286Z,-15.12
2023-01-09T13:06:16.730Z,-14.95
2023-01-09T13:09:05.566Z,-15.53
2023-01-09T13:11:41.843Z,-15.57
2023-01-09T13:14:19.755Z,-15.83
2023-01-09T13:16:53.371Z,-15.48
2023-01-09T13:19:54.250Z,-16.11
2023-01-09T13:22:26.148Z,-15.67
2023-01-09T13:25:19.611Z,-15.45
2023-01-09T13:27:58.048Z,-15.21
2023-01-09T13:30:38.904Z,-14.90
2023-01-09T13:33:13.539Z,-15.05
2023-01-09T13:35:55.228Z,-14.97
2023-01-09T13:38:25.091Z,-15.13
2023-01-09T13:41:35.441Z,-15.24
2023-01-09T13:44:08.974Z,-15.23
2023-01-09T13:46:48.915Z,-14.97
2023-01-09T13:49:44.165Z,-14.87
2023-01-09T13:52:31.877Z,-15.70
2023-01-09T13:54:58.961Z,-15.32
2023-01-09T13:57:29.081Z,-15.41
2023-01-09T14:00:19.648Z,-14.80
2023-01-09T14:02:50.019Z,-15.17
2023-01-09T14:05:37.235Z,-14.97
2023-01-09T14:08:11.594Z,-14.96
2023-01-09T14:10:47.798Z,-15.30
2023-01-09T14:13:22.952Z,-15.59
2023-01-09T14:15:52.654Z,-15.43
2023-01-09T14:18:32.719Z,-14.98
2023-01-09T14:21:03.288Z,-15.02
2023-01-09T14:23:52.664Z,-15.18
2023-01-09T14:26:41.086Z,-14.99
2023-01-09T14:29:43.509Z,-14.94
2023-01-09T14:32:22.872Z,-14.73
2023-01-09T14:35:02.402Z,-15.73
2023-01-09T14:37:31.154Z,-15.86
2023-01-09T14:39:59.105Z,-16.19
2023-01-09T14:42:29.587Z,-15.57
2023-01-09T14:45:14.361Z,-15.61
2023-01-09T14:47:49.311Z,-15.24
2023-01-09T14:50:19.031Z,-14.95
2023-01-09T14:52:53.279Z,-14.60
2023-01-09T14:55:30.086Z,-14.72
2023-01-09T14:58:10.993Z,-14.66
2023-01-09T15:00:47.833Z,-14.73
2023-01-09T15:03:15.867Z,-14.69
2023-01-09T15:05:45.799Z,-14.69
2023-01-09T15:08:18.264Z,-14.77
2023-01-09T15:10:48.094Z,-14.75
2023-01-09T15:13:37.702Z,-15.45
2023-01-09T15:16:06.662Z,-15.92
2023-01-09T15:18:42.062Z,-15.92
2023-01-09T15:21:19.375Z,-15.27
2023-01-09T15:23:46.594Z,-15.29
2023-01-09T15:26:26.330Z,-15.17
2023-01-09T15:29:00.960Z,-15.96
2023-01-09T15:31:28.966Z,-15.54
2023-01-09T15:33:57.137Z,-16.50
2023-01-09T15:36:27.347Z,-16.02
2023-01-09T15:38:54.937Z,-16.05
2023-01-09T15:41:48.857Z,-16.29
2023-01-09T15:44:28.518Z,-16.05
2023-01-09T15:47:00.740Z,-16.55
2023-01-09T15:49:28.228Z,-16.19
2023-01-09T15:51:56.165Z,-15.79
2023-01-09T15:54:30.409Z,-15.58
2023-01-09T15:57:25.264Z,-15.48
2023-01-09T15:59:53.365Z,-16.38
2023-01-09T16:02:41.108Z,-16.03
2023-01-09T16:05:18.339Z,-15.64
2023-01-09T16:07:47.140Z,-15.45
2023-01-09T16:10:25.541Z,-15.27
2023-01-09T16:12:53.335Z,-16.19
2023-01-09T16:15:21.129Z,-15.76
2023-01-09T16:18:28.003Z,-15.67
2023-01-09T16:21:03.288Z,-16.67
2023-01-09T16:23:33.184Z,-16.48
2023-01-09T16:26:12.992Z,-15.75
2023-01-09T16:28:43.177Z,-15.52
2023-01-09T16:31:28.161Z,-15.41
2023-01-09T16:33:59.568Z,-15.54
2023-01-09T16:36:28.006Z,-15.72
2023-01-09T16:38:56.472Z,-15.30
2023-01-09T16:41:42.368Z,-15.18
2023-01-09T16:44:10.708Z,-15.47
2023-01-09T16:46:43.943Z,-15.95
2023-01-09T16:49:27.170Z,-16.63
2023-01-09T16:51:55.184Z,-15.86
2023-01-09T16:54:22.302Z,-15.70
2023-01-09T16:56:52.616Z,-15.42
2023-01-09T16:59:25.099Z,-16.05
2023-01-09T17:01:53.639Z,-15.80
2023-01-09T17:04:21.330Z,-16.00
2023-01-09T17:06:49.267Z,-16.03
2023-01-09T17:09:24.076Z,-16.18
2023-01-09T17:11:52.443Z,-16.73
2023-01-09T17:14:19.597Z,-16.77
2023-01-09T17:16:46.908Z,-17.29
2023-01-09T17:19:18.965Z,-16.77
2023-01-09T17:21:46.506Z,-16.27
2023-01-09T17:24:32.065Z,-16.40
2023-01-09T17:27:19.110Z,-16.10
2023-01-09T17:29:46.505Z,-16.11
2023-01-09T17:32:19.322Z,-16.10
2023-01-09T17:34:46.433Z,-16.17
2023-01-09T17:37:19.080Z,-16.40
2023-01-09T17:39:46.428Z,-17.55
2023-01-09T17:42:13.610Z,-16.98
2023-01-09T17:44:40.847Z,-17.04
2023-01-09T17:47:15.276Z,-16.95
2023-01-09T17:49:42.860Z,-16.50
2023-01-09T17:52:09.986Z,-16.09
2023-01-09T17:54:37.090Z,-16.15
2023-01-09T17:57:04.512Z,-16.26
2023-01-09T17:59:31.718Z,-16.49
2023-01-09T18:01:58.918Z,-16.44
2023-01-09T18:04:26.041Z,-16.54
2023-01-09T18:06:54.682Z,-16.58
2023-01-09T18:09:21.849Z,-16.85
2023-01-09T18:11:48.939Z,-16.68
2023-01-09T18:14:17.213Z,-16.33
2023-01-09T18:16:45.386Z,-17.06
2023-01-09T18:19:12.893Z,-17.09
2023-01-09T18:21:40.101Z,-17.58
2023-01-09T18:24:08.860Z,-17.02
2023-01-09T18:26:35.956Z,-16.91
2023-01-09T18:29:03.658Z,-17.16
2023-01-09T18:31:31.602Z,-16.91
2023-01-09T18:34:02.562Z,-16.55
2023-01-09T18:36:30.933Z,-16.61
2023-01-09T18:39:00.332Z,-16.54
2023-01-09T18:41:28.726Z,-16.34
2023-01-09T18:43:58.340Z,-16.49
2023-01-09T18:46:30.844Z,-16.59
2023-01-09T18:49:00.262Z,-16.48
2023-01-09T18:51:28.649Z,-16.52
2023-01-09T18:53:55.978Z,-16.70
2023-01-09T18:56:24.892Z,-16.64
2023-01-09T18:58:57.338Z,-17.42
2023-01-09T19:01:26.025Z,-17.22
2023-01-09T19:03:53.412Z,-17.09
2023-01-09T19:06:20.708Z,-17.09
2023-01-09T19:08:48.097Z,-16.67
2023-01-09T19:11:15.597Z,-16.89
2023-01-09T19:13:42.800Z,-16.78
2023-01-09T19:16:10.664Z,-16.74
2023-01-09T19:18:41.967Z,-16.96
2023-01-09T19:21:11.443Z,-17.25
2023-01-09T19:23:39.836Z,-17.09
2023-01-09T19:26:09.079Z,-17.46
2023-01-09T19:28:36.649Z,-17.07
2023-01-09T19:31:03.963Z,-16.92
2023-01-09T19:33:31.099Z,-16.70
2023-01-09T19:35:58.250Z,-17.15
2023-01-09T19:38:26.942Z,-16.92
2023-01-09T19:40:54.102Z,-16.76
2023-01-09T19:43:27.535Z,-16.78
2023-01-09T19:45:56.179Z,-16.93
2023-01-09T19:48:24.334Z,-17.27
2023-01-09T19:50:51.439Z,-18.03
2023-01-09T19:53:18.583Z,-17.37
2023-01-09T19:55:45.658Z,-16.95
2023-01-09T19:58:12.860Z,-16.64
2023-01-09T20:00:40.016Z,-16.54
2023-01-09T20:03:07.135Z,-16.75
2023-01-09T20:05:34.333Z,-16.57
2023-01-09T20:08:05.725Z,-16.86
2023-01-09T20:10:33.838Z,-17.71
2023-01-09T20:13:00.926Z,-17.24
2023-01-09T20:15:28.025Z,-17.82
2023-01-09T20:17:55.087Z,-17.36
2023-01-09T20:20:22.339Z,-17.30
2023-01-09T20:22:49.382Z,-17.77
2023-01-09T20:25:16.473Z,-17.38
2023-01-09T20:27:43.575Z,-16.99
2023-01-09T20:30:11.292Z,-17.16
2023-01-09T20:32:38.522Z,-16.99
2023-01-09T20:35:06.056Z,-17.08
2023-01-09T20:37:33.257Z,-17.08
2023-01-09T20:40:00.583Z,-16.94
2023-01-09T20:42:27.639Z,-17.39
2023-01-09T20:44:55.766Z,-18.13
2023-01-09T20:47:22.853Z,-17.53
2023-01-09T20:49:49.946Z,-17.08
2023-01-09T20:52:17.000Z,-17.36
2023-01-09T20:54:46.102Z,-17.44
2023-01-09T20:57:13.237Z,-17.36
2023-01-09T20:59:40.450Z,-17.46
2023-01-09T21:02:14.550Z,-17.54
2023-01-09T21:04:41.655Z,-17.21
2023-01-09T21:07:10.893Z,-17.08
2023-01-09T21:09:38.050Z,-17.30
2023-01-09T21:12:24.728Z,-17.53
2023-01-09T21:14:51.976Z,-17.02
2023-01-09T21:17:19.161Z,-17.67
2023-01-09T21:19:46.398Z,-17.40
2023-01-09T21:22:13.519Z,-16.91
2023-01-09T21:24:40.601Z,-17.18
2023-01-09T21:27:07.839Z,-17.42
2023-01-09T21:29:34.997Z,-18.05
2023-01-09T21:32:02.143Z,-17.60
2023-01-09T21:34:29.260Z,-17.67
2023-01-09T21:36:56.765Z,-18.15
2023-01-09T21:39:23.937Z,-18.37
2023-01-09T21:42:09.414Z,-18.29
2023-01-09T21:44:54.999Z,-18.22
2023-01-09T21:47:22.936Z,-17.80
2023-01-09T21:50:09.576Z,-17.95
2023-01-09T21:52:37.428Z,-17.95
2023-01-09T21:55:04.903Z,-17.42
2023-01-09T21:57:32.152Z,-17.20
2023-01-09T21:59:59.319Z,-17.12
2023-01-09T22:02:26.432Z,-17.13
2023-01-09T22:04:59.986Z,-17.86
2023-01-09T22:07:27.134Z,-17.42
2023-01-09T22:09:54.216Z,-17.23
2023-01-09T22:12:21.266Z,-17.15
2023-01-09T22:14:48.307Z,-16.90
2023-01-09T22:17:15.431Z,-16.84
2023-01-09T22:19:42.535Z,-17.02
2023-01-09T22:22:09.673Z,-16.89
2023-01-09T22:24:36.831Z,-17.66
2023-01-09T22:27:04.348Z,-17.66
2023-01-09T22:29:31.555Z,-17.40
2023-01-09T22:31:58.692Z,-17.88
2023-01-09T22:34:25.966Z,-18.08
2023-01-09T22:36:53.069Z,-18.28
2023-01-09T22:39:20.340Z,-18.12
2023-01-09T22:41:52.550Z,-18.36
2023-01-09T22:44:19.626Z,-18.32
2023-01-09T22:46:46.758Z,-17.92
2023-01-09T22:49:14.319Z,-17.64
2023-01-09T22:51:41.454Z,-17.79
2023-01-09T22:54:08.757Z,-18.31
2023-01-09T22:56:35.916Z,-18.42
2023-01-09T22:59:03.108Z,-18.31
2023-01-09T23:01:30.209Z,-17.92
2023-01-09T23:03:57.279Z,-17.69
2023-01-09T23:06:25.504Z,-17.83
2023-01-09T23:08:53.120Z,-17.71
2023-01-09T23:11:45.652Z,-17.45
2023-01-09T23:14:13.094Z,-17.24
2023-01-09T23:16:40.875Z,-17.23
2023-01-09T23:19:14.751Z,-17.11
2023-01-09T23:21:42.860Z,-17.17
2023-01-09T23:24:11.070Z,-16.97
2023-01-09T23:26:41.494Z,-17.34
2023-01-09T23:29:08.568Z,-17.40
2023-01-09T23:31:36.351Z,-17.03
2023-01-09T23:34:04.780Z,-17.41
2023-01-09T23:36:31.911Z,-17.48
2023-01-09T23:38:59.805Z,-17.13
2023-01-09T23:41:45.796Z,-17.08
2023-01-09T23:44:12.883Z,-17.21
2023-01-09T23:46:39.980Z,-17.13
2023-01-09T23:49:07.150Z,-17.05
2023-01-09T23:51:34.317Z,-18.27
2023-01-09T23:54:01.395Z,-17.54
2023-01-09T23:56:30.737Z,-17.82
2023-01-09T23:58:58.172Z,-18.04
